• Join FlightAware (Why Join?)
  • Login
  • US Flag 
11:32AM EDT


 

Airport Tracker/Info


-or-


 

Live Flight TrackerFlight Track Log ✈ SWA2436 ✈ 11-Apr-2013 ✈ KMSY - KHOU

Flight Track Log - Related Links

Times and Time Zones

All times are in EDT time to prevent confusion due to time zone crossing. See the SWA2436 flight status page for this flight to view local times or setup timezone preferences in your user account.

Time Position Orientation Groundspeed Altitude Reporting Facility
EDT Latitude Longitude Course Direction KTS MPH feet Rate Location/Type
10:49PM 29.9989 -90.3011 280° West 157 181 1,700  Level Houston Center
10:50PM 29.9753 -90.3692 248° West 240 276 4,800 4,200 Climbing Houston Center
10:51PM 29.9483 -90.4444 248° West 246 283 9,900 3,540 Climbing Houston Center
10:52PM 29.9214 -90.5364 251° West 282 325 12,400 3,000 Climbing Houston Center
10:53PM 29.8922 -90.6389 252° West 330 380 16,400 3,660 Climbing Houston Center
10:54PM 29.8553 -90.7389 247° West 337 388 19,900 3,000 Climbing Houston Center
10:55PM 29.8256 -90.8481 253° West 357 411 22,500 2,700 Climbing Houston Center
10:56PM 29.8094 -90.9661 261° West 371 427 25,500 2,700 Climbing Houston Center
10:57PM 29.7942 -91.0864 262° West 379 436 28,000 2,340 Climbing Houston Center
10:58PM 29.7758 -91.2086 260° West 386 444 30,400 2,400 Climbing Houston Center
10:59PM 29.7586 -91.3308 261° West 386 444 33,000 2,220 Climbing Houston Center
11:00PM 29.7414 -91.4528 261° West 385 443 35,000 1,980 Climbing Houston Center
11:01PM 29.7233 -91.5728 260° West 381 438 37,100 1,440 Climbing Houston Center
11:02PM 29.7036 -91.7144 261° West 377 434 38,000 300 Climbing Houston Center
11:03PM 29.6889 -91.8139 260° West 376 433 37,800 -600 Descending Houston Center
11:04PM 29.6717 -91.9325 261° West 376 433 36,800 -900 Descending Houston Center
11:05PM 29.6508 -92.0739 260° West 373 429 36,000 -420 Descending Houston Center
11:06PM 29.6322 -92.1908 260° West 371 427 36,000  Level Houston Center
11:07PM 29.6150 -92.3081 260° West 373 429 36,000  Level Houston Center
11:08PM 29.5975 -92.4256 260° West 374 430 36,000  Level Houston Center
11:09PM 29.5794 -92.5425 260° West 372 428 36,000  Level Houston Center
11:10PM 29.5625 -92.6592 261° West 371 427 36,000  Level Houston Center
11:11PM 29.5442 -92.7772 260° West 373 429 36,000  Level Houston Center
11:12PM 29.5256 -92.8950 260° West 375 432 36,000 -60 Level Houston Center
11:13PM 29.5075 -93.0131 260° West 376 433 35,900 -600 Descending Houston Center
11:14PM 29.4894 -93.1308 260° West 375 432 34,900 -1,020 Descending Houston Center
11:15PM 29.4697 -93.2489 259° West 376 433 33,900 -1,020 Descending Houston Center
11:16PM 29.4511 -93.3664 260° West 374 430 32,900 -1,500 Descending Houston Center
11:17PM 29.4336 -93.4814 260° West 368 423 30,900 -1,980 Descending Houston Center
11:18PM 29.4158 -93.5886 259° West 351 404 28,900 -2,220 Descending Houston Center
11:19PM 29.3956 -93.7144 260° West 339 390 26,500 -2,160 Descending Houston Center
11:20PM 29.3786 -93.8153 259° West 328 377 24,600 -1,860 Descending Houston Center
11:21PM 29.3675 -93.8819 259° West 317 365 23,400 -1,620 Descending Houston Center
11:21PM 29.3661 -93.8972 264° West 318 366 23,000 -1,800 Descending Houston Center
11:22PM 29.3519 -93.9753 258° West 311 358 21,600 -2,520 Descending Houston Center
11:22PM 29.3464 -94.0139 261° West 311 358 20,500 -1,680 Descending Houston Center
11:23PM 29.3350 -94.0783 259° West 308 354 19,900 -1,140 Descending Houston Center
11:23PM 29.3303 -94.1100 260° West 308 354 19,400 -1,620 Descending Houston Center
11:24PM 29.3211 -94.1689 260° West 304 350 18,300 -1,980 Descending Houston Center
11:24PM 29.3144 -94.2036 258° West 301 346 17,400 -2,100 Descending Houston Center
11:25PM 29.3036 -94.2672 259° West 295 339 16,200 -1,800 Descending Houston Center
11:25PM 29.2994 -94.2950 260° West 295 339 15,600 -1,800 Descending Houston Center
11:26PM 29.2872 -94.3556 257° West 287 330 14,400 -1,800 Descending Houston Center
11:26PM 29.2853 -94.3839 266° West 285 328 13,800 -1,860 Descending Houston Center
11:27PM 29.2719 -94.4558 258° West 291 335 12,400 -1,680 Descending Houston Center
11:27PM 29.2700 -94.4769 264° West 296 341 12,100 -1,140 Descending Houston Center
11:28PM 29.2981 -94.5483 294° West 292 336 11,300 -1,020 Descending Houston Center
11:28PM 29.3050 -94.5594 306° West 293 337 11,100 -1,020 Descending Houston Center
11:29PM 29.3350 -94.6253 298° West 277 319 10,300 -1,020 Descending Houston Center
11:29PM 29.3425 -94.6367 307° West 279 321 10,100 -300 Descending Houston Center
11:30PM 29.3719 -94.7022 297° West 272 313 10,000 -120 Descending Houston Center
11:30PM 29.3792 -94.7122 310° West 271 312 10,000  Level Houston Center
11:31PM 29.4131 -94.7808 300° West 272 313 10,000 -720 Level Houston Center
11:32PM 29.4447 -94.8489 298° West 261 300 8,800 -1,320 Descending Houston Center
11:33PM 29.4525 -94.8611 306° West 267 307 8,500 -1,500 Descending Houston Center
11:33PM 29.4836 -94.9258 299° West 253 291 7,300 -1,380 Descending Houston Center
11:34PM 29.4875 -94.9311 310° West 255 293 7,100 -1,320 Descending Houston Center
11:34PM 29.5139 -94.9989 294° West 260 299 6,000 -1,200 Descending Houston Center
11:35PM 29.5147 -95.0047 279° West 260 299 5,900  Descending Houston Center
11:35PM 29.5044 -95.0769 261° West 249 287 6,000  Climbing Houston Center
11:36PM 29.5031 -95.0850 259° West 251 289 5,900  Descending Houston Center
11:36PM 29.4944 -95.1500 261° West 221 254 6,000 60 Climbing Houston Center
11:37PM 29.4925 -95.1572 253° West 227 261 6,000 -300 Level Houston Center
11:37PM 29.4836 -95.2161 260° West 208 239 5,700 -420 Descending Houston Center
11:38PM 29.4831 -95.2253 266° West 214 246 5,600 -1,020 Descending Houston Center
11:38PM 29.4731 -95.2822 259° West 208 239 4,700 -1,140 Descending Houston Center
11:39PM 29.4742 -95.2919 277° West 212 244 4,500 -1,140 Descending Houston Center
11:39PM 29.4953 -95.3419 296° West 207 238 3,600 -1,020 Descending Houston Center
11:40PM 29.5011 -95.3503 309° West 205 236 3,500 -900 Descending Houston Center
11:40PM 29.5444 -95.3722 336° Northwest 180 207 2,700 -900 Descending Houston Center
11:41PM 29.5483 -95.3722 360° North 185 213 2,600 -1,200 Descending Houston Center
11:41PM 29.5861 -95.3456 32° Northeast 159 183 1,500 -1,200 Descending Houston Center
11:42PM 29.5881 -95.3431 48° Northeast 173 199 1,400 -780 Descending Houston Center
11:42PM 29.6106 -95.3161 46° Northeast 134 154 800 -840 Descending Houston Center
11:43PM 29.6164 -95.3106 40° Northeast 157 181 600 -540 Descending Houston Center
11:44PM 29.6439 -95.2789 45° Northeast 142 163 100 -540 Descending Houston Center